Time;durP1;ratioP1;P1;durP2;ratioP2;P2;SDS_P1;SDS_P2;PMS_P1;PMS_P2;Temp;Humidity;BMP_temperature;BMP_pressure;BME280_temperature;BME280_humidity;BME280_pressure;Samples;Min_cycle;Max_cycle;Signal;HPM_P1;HPM_P2
2022/12/05 00:01:18;;;;;;;10.23;3.33;;;3.60;99.90;;;;;;4413038;32;20176;-62
2022/12/05 00:03:44;;;;;;;5.43;3.42;;;3.50;99.90;;;;;;4392282;32;20164;-61
2022/12/05 00:06:09;;;;;;;8.63;4.87;;;3.50;99.90;;;;;;4397949;32;20073;-62
2022/12/05 00:08:35;;;;;;;3.53;3.05;;;3.50;99.90;;;;;;4413252;32;20086;-61
2022/12/05 00:11:00;;;;;;;8.02;4.22;;;3.50;99.90;;;;;;4401672;32;20090;-61
2022/12/05 00:13:26;;;;;;;7.65;4.57;;;3.50;99.90;;;;;;4414113;32;20083;-58
2022/12/05 00:15:51;;;;;;;3.58;3.05;;;3.50;99.90;;;;;;4413750;32;20058;-61
2022/12/05 00:18:17;;;;;;;7.75;4.25;;;3.50;99.90;;;;;;4412207;32;20070;-62
2022/12/05 00:20:45;;;;;;;7.97;4.93;;;3.50;99.90;;;;;;4401654;32;20137;-61
2022/12/05 00:23:11;;;;;;;9.50;5.40;;;3.50;99.90;;;;;;4415967;32;20284;-62
2022/12/05 00:25:36;;;;;;;3.53;2.72;;;3.50;99.90;;;;;;4417686;32;20098;-62
2022/12/05 00:28:02;;;;;;;4.37;3.20;;;3.60;99.90;;;;;;4401597;32;20170;-61
2022/12/05 00:30:27;;;;;;;2.10;1.90;;;3.60;99.90;;;;;;4412076;32;20055;-60
2022/12/05 00:32:53;;;;;;;9.60;4.72;;;3.60;99.90;;;;;;4407913;32;20129;-62
2022/12/05 00:35:18;;;;;;;10.25;4.93;;;3.60;99.90;;;;;;4385747;32;20050;-61
2022/12/05 00:37:44;;;;;;;3.45;2.65;;;3.70;99.90;;;;;;4405490;32;20125;-59
2022/12/05 00:40:10;;;;;;;3.15;2.33;;;3.60;99.90;;;;;;4413507;32;20106;-60
2022/12/05 00:42:35;;;;;;;5.75;3.00;;;3.60;99.90;;;;;;4412630;32;20107;-61
2022/12/05 00:45:01;;;;;;;3.17;2.87;;;3.60;99.90;;;;;;4403100;32;20095;-61
2022/12/05 00:47:26;;;;;;;7.82;4.90;;;3.60;99.90;;;;;;4411510;32;20489;-59
2022/12/05 00:49:51;;;;;;;7.55;4.43;;;3.60;99.90;;;;;;4414346;32;20061;-60
2022/12/05 00:52:17;;;;;;;6.03;3.42;;;3.60;99.90;;;;;;4418103;32;20107;-61
2022/12/05 00:54:42;;;;;;;4.50;2.92;;;3.60;99.90;;;;;;4405665;32;20070;-61
2022/12/05 00:57:08;;;;;;;5.97;3.08;;;3.60;99.90;;;;;;4415313;32;20097;-61
2022/12/05 00:59:34;;;;;;;2.47;2.30;;;3.60;99.90;;;;;;4414377;32;20059;-61
2022/12/05 01:01:59;;;;;;;2.45;2.25;;;3.60;99.90;;;;;;4415052;32;20136;-61
2022/12/05 01:04:25;;;;;;;6.18;3.17;;;3.60;99.90;;;;;;4396973;32;20077;-61
2022/12/05 01:06:54;;;;;;;7.43;4.30;;;3.60;99.90;;;;;;4399109;32;20078;-61
2022/12/05 01:09:20;;;;;;;3.47;3.00;;;3.60;99.90;;;;;;4402787;32;20135;-61
2022/12/05 01:11:47;;;;;;;21.17;5.00;;;3.60;99.90;;;;;;4402357;32;20058;-60
2022/12/05 01:14:14;;;;;;;13.02;4.35;;;3.60;99.90;;;;;;4415024;32;20219;-61
2022/12/05 01:16:41;;;;;;;5.53;3.78;;;3.60;99.90;;;;;;4392034;32;20501;-62
2022/12/05 01:19:12;;;;;;;5.80;3.05;;;3.60;99.90;;;;;;4405553;32;20086;-59
2022/12/05 01:21:38;;;;;;;5.57;3.37;;;3.60;99.90;;;;;;4391254;32;20394;-60
2022/12/05 01:24:04;;;;;;;11.85;4.37;;;3.60;99.90;;;;;;4407029;32;20050;-61
2022/12/05 01:26:29;;;;;;;5.95;3.75;;;3.60;99.90;;;;;;4420681;32;20077;-58
2022/12/05 01:28:55;;;;;;;6.60;3.42;;;3.60;99.90;;;;;;4417450;32;20058;-61
2022/12/05 01:31:27;;;;;;;4.95;2.90;;;3.60;99.90;;;;;;4406362;32;20073;-62
2022/12/05 01:33:54;;;;;;;3.15;2.55;;;3.60;99.90;;;;;;4386216;32;20074;-62
2022/12/05 01:36:21;;;;;;;5.00;3.03;;;3.60;99.90;;;;;;4386917;32;20062;-62
2022/12/05 01:38:48;;;;;;;6.65;3.50;;;3.70;99.90;;;;;;4416742;32;20104;-61
2022/12/05 01:41:18;;;;;;;7.45;4.35;;;3.60;99.90;;;;;;4407867;32;20058;-59
2022/12/05 01:44:01;;;;;;;;;;;3.70;99.90;;;;;;4390769;32;20085;-62
2022/12/05 01:46:31;;;;;;;3.83;1.65;;;3.60;99.90;;;;;;4417992;32;19957;-62
2022/12/05 01:49:06;;;;;;;15.30;4.12;;;3.60;99.90;;;;;;4410238;32;20045;-61
2022/12/05 01:51:33;;;;;;;4.90;3.80;;;3.60;99.90;;;;;;4403104;32;20094;-61
2022/12/05 01:54:00;;;;;;;3.90;2.47;;;3.60;99.90;;;;;;4405012;32;20126;-61
2022/12/05 01:56:26;;;;;;;20.58;4.78;;;3.60;99.90;;;;;;4404167;32;20088;-59
2022/12/05 01:58:52;;;;;;;5.30;2.80;;;3.60;99.90;;;;;;4405507;32;20093;-62
2022/12/05 02:01:19;;;;;;;2.75;2.12;;;3.60;99.90;;;;;;4402102;32;20105;-60
2022/12/05 02:03:47;;;;;;;20.52;4.55;;;3.60;99.90;;;;;;4406965;32;20090;-61
2022/12/05 02:06:13;;;;;;;4.68;3.22;;;3.60;99.90;;;;;;4386656;32;20089;-62
2022/12/05 02:08:39;;;;;;;18.12;3.78;;;3.60;99.90;;;;;;4413938;32;20112;-61
2022/12/05 02:11:06;;;;;;;5.15;2.65;;;3.60;99.90;;;;;;4406364;32;20066;-61
2022/12/05 02:13:49;;;;;;;11.07;4.78;;;3.60;99.90;;;;;;4403227;32;20103;-61
2022/12/05 02:16:42;;;;;;;2.28;2.10;;;3.60;99.90;;;;;;4404544;32;20066;-61
2022/12/05 02:19:48;;;;;;;3.95;3.22;;;3.60;99.90;;;;;;4407801;32;20131;-60
2022/12/05 02:22:25;;;;;;;2.47;2.00;;;3.60;99.90;;;;;;4406927;32;20079;-60
2022/12/05 02:25:31;;;;;;;12.30;5.03;;;3.60;99.90;;;;;;4417652;32;20118;-60
2022/12/05 02:28:25;;;;;;;4.22;3.12;;;3.60;99.90;;;;;;4411536;32;20079;-61
2022/12/05 02:30:58;;;;;;;14.38;4.22;;;3.60;99.90;;;;;;4404375;32;20880;-60
2022/12/05 02:33:46;;;;;;;3.20;2.37;;;3.60;99.90;;;;;;4409526;32;20081;-62
2022/12/05 02:36:22;;;;;;;3.65;2.42;;;3.70;99.90;;;;;;4391302;32;20078;-61
2022/12/05 02:39:03;;;;;;;6.82;3.55;;;3.70;99.90;;;;;;4403323;32;20046;-61
2022/12/05 02:41:38;;;;;;;2.80;2.15;;;3.70;99.90;;;;;;4414067;32;20105;-62
2022/12/05 02:44:08;;;;;;;34.92;3.37;;;3.60;99.90;;;;;;4414897;32;20073;-61
2022/12/05 02:46:36;;;;;;;4.50;3.10;;;3.70;99.90;;;;;;4416542;32;20135;-59
2022/12/05 02:49:07;;;;;;;6.50;2.85;;;3.70;99.90;;;;;;4406869;32;20082;-61
2022/12/05 02:51:37;;;;;;;1.75;1.62;;;3.70;99.90;;;;;;4403446;32;20080;-61
2022/12/05 02:54:06;;;;;;;8.27;3.57;;;3.60;99.90;;;;;;4404897;32;20054;-61
2022/12/05 02:56:34;;;;;;;6.37;3.80;;;3.70;99.90;;;;;;4407253;32;20066;-62
2022/12/05 02:59:00;;;;;;;8.25;3.62;;;3.60;99.90;;;;;;4406365;32;20054;-62
2022/12/05 03:01:28;;;;;;;2.87;2.28;;;3.70;99.90;;;;;;4418539;32;20078;-62
2022/12/05 03:03:56;;;;;;;3.50;2.55;;;3.70;99.90;;;;;;4395303;32;20694;-62
2022/12/05 03:06:28;;;;;;;16.08;2.92;;;3.70;99.90;;;;;;4392369;32;20118;-61
2022/12/05 03:08:59;;;;;;;8.85;3.65;;;3.80;99.90;;;;;;4416645;32;20070;-61
2022/12/05 03:11:30;;;;;;;4.07;2.30;;;3.70;99.90;;;;;;4418410;32;20089;-61
2022/12/05 03:13:59;;;;;;;9.07;4.07;;;3.70;99.90;;;;;;4405994;32;20077;-59
2022/12/05 03:16:32;;;;;;;3.50;3.17;;;3.70;99.90;;;;;;4405921;32;20030;-61
2022/12/05 03:19:04;;;;;;;10.07;2.35;;;3.70;99.90;;;;;;4405775;32;20082;-61
2022/12/05 03:21:35;;;;;;;3.72;2.47;;;3.70;99.90;;;;;;4418711;32;20062;-61
2022/12/05 03:24:08;;;;;;;10.45;2.22;;;3.70;99.90;;;;;;4419695;32;20109;-61
2022/12/05 03:27:13;;;;;;;3.37;2.85;;;3.80;99.90;;;;;;4417075;32;20105;-62
2022/12/05 03:29:50;;;;;;;1.58;1.48;;;3.80;99.90;;;;;;4415265;32;20107;-61
2022/12/05 03:32:25;;;;;;;1.98;1.87;;;3.80;99.90;;;;;;4416231;32;20093;-59
2022/12/05 03:35:03;;;;;;;4.85;2.33;;;3.70;99.90;;;;;;4404176;32;20053;-61
2022/12/05 03:37:38;;;;;;;3.65;1.90;;;3.70;99.90;;;;;;4408329;32;20144;-61
2022/12/05 03:40:25;;;;;;;9.43;2.75;;;3.70;99.90;;;;;;4405820;32;20089;-61
2022/12/05 03:42:59;;;;;;;3.65;2.10;;;3.70;99.90;;;;;;4418959;32;20073;-62
2022/12/05 03:45:36;;;;;;;7.82;2.83;;;3.70;99.90;;;;;;4404032;32;20062;-61
2022/12/05 03:48:12;;;;;;;2.22;1.75;;;3.70;99.90;;;;;;4416479;32;20094;-60
2022/12/05 03:50:42;;;;;;;1.52;1.42;;;3.70;99.90;;;;;;4413929;32;20057;-61
2022/12/05 03:53:15;;;;;;;2.40;2.20;;;3.70;99.90;;;;;;4403548;32;20078;-61
2022/12/05 03:55:43;;;;;;;6.43;2.87;;;3.80;99.90;;;;;;4419226;32;20066;-62
2022/12/05 03:58:20;;;;;;;3.20;2.10;;;3.80;99.90;;;;;;4416127;32;20046;-61
2022/12/05 04:00:49;;;;;;;1.85;1.67;;;3.80;99.90;;;;;;4404354;32;20066;-62
2022/12/05 04:03:23;;;;;;;2.75;2.12;;;3.70;99.90;;;;;;4398785;32;20082;-61
2022/12/05 04:05:54;;;;;;;4.20;2.95;;;3.80;99.90;;;;;;4387082;32;20050;-62
2022/12/05 04:08:28;;;;;;;2.70;2.00;;;3.80;99.90;;;;;;4398571;32;20166;-63
2022/12/05 04:10:59;;;;;;;1.25;1.15;;;3.80;99.90;;;;;;4404561;32;20134;-61
2022/12/05 04:13:42;;;;;;;6.32;2.12;;;3.80;99.90;;;;;;4404408;32;20089;-62
2022/12/05 04:17:13;;;;;;;2.95;2.65;;;3.80;99.90;;;;;;4391553;32;20097;-62
2022/12/05 04:19:10;;;;;;;2.08;1.85;;;3.90;99.90;;;;;;4392955;32;20092;-62
2022/12/05 04:21:41;;;;;;;2.08;1.90;;;3.80;99.90;;;;;;4405193;32;20118;-62
2022/12/05 04:25:43;;;;;;;2.40;1.73;;;3.80;99.90;;;;;;4401699;32;20137;-63
2022/12/05 04:27:18;;;;;;;2.25;2.05;;;3.90;99.90;;;;;;4395361;32;20053;-60
2022/12/05 04:29:59;;;;;;;2.83;2.00;;;3.80;99.90;;;;;;4416112;32;20085;-62
2022/12/05 04:32:29;;;;;;;1.80;1.70;;;3.80;99.90;;;;;;4417326;32;20039;-62
2022/12/05 04:34:59;;;;;;;3.72;2.58;;;3.80;99.90;;;;;;4388158;32;20167;-63
2022/12/05 04:37:27;;;;;;;1.85;1.73;;;3.80;99.90;;;;;;4406571;32;20042;-59
2022/12/05 04:39:57;;;;;;;1.48;1.30;;;3.80;99.90;;;;;;4418764;32;20063;-62
2022/12/05 04:42:27;;;;;;;1.35;1.25;;;3.80;99.90;;;;;;4401641;32;20093;-61
2022/12/05 04:44:57;;;;;;;2.13;1.93;;;3.80;99.90;;;;;;4403791;32;20062;-62
2022/12/05 04:47:28;;;;;;;6.62;2.67;;;3.80;99.90;;;;;;4406493;32;20083;-59
2022/12/05 04:49:54;;;;;;;3.58;2.45;;;3.80;99.90;;;;;;4406137;32;20343;-61
2022/12/05 04:52:21;;;;;;;12.57;2.97;;;3.80;99.90;;;;;;4407268;32;20101;-60
2022/12/05 04:54:53;;;;;;;4.40;1.73;;;3.80;99.90;;;;;;4407426;32;21203;-60
2022/12/05 04:57:24;;;;;;;2.20;1.98;;;3.80;99.90;;;;;;4408185;32;20066;-59
2022/12/05 04:59:50;;;;;;;3.92;1.87;;;3.80;99.90;;;;;;4417696;32;20066;-61
2022/12/05 05:02:23;;;;;;;4.22;1.45;;;3.80;99.90;;;;;;4419976;32;20098;-62
2022/12/05 05:04:51;;;;;;;1.48;1.37;;;3.80;99.90;;;;;;4387218;32;20097;-61
2022/12/05 05:07:18;;;;;;;1.55;1.45;;;3.80;99.90;;;;;;4408020;32;20090;-62
2022/12/05 05:09:44;;;;;;;2.53;2.33;;;3.80;99.90;;;;;;4403753;32;20070;-61
2022/12/05 05:12:10;;;;;;;2.33;2.00;;;3.80;99.90;;;;;;4403146;32;20091;-59
2022/12/05 05:14:35;;;;;;;5.75;2.70;;;3.90;99.90;;;;;;4419687;32;20074;-61
2022/12/05 05:17:01;;;;;;;1.67;1.37;;;3.90;99.90;;;;;;4405956;32;20053;-60
2022/12/05 05:19:26;;;;;;;1.30;1.23;;;3.90;99.90;;;;;;4418601;32;20068;-62
2022/12/05 05:21:52;;;;;;;3.78;2.05;;;3.90;99.90;;;;;;4406844;32;20086;-62
2022/12/05 05:24:20;;;;;;;6.90;2.40;;;3.90;99.90;;;;;;4382272;32;20097;-62
2022/12/05 05:26:46;;;;;;;3.70;2.40;;;3.90;99.90;;;;;;4390488;32;20086;-61
2022/12/05 05:29:12;;;;;;;16.90;1.20;;;3.90;99.90;;;;;;4369777;32;20063;-61
2022/12/05 05:31:39;;;;;;;4.47;2.20;;;3.90;99.90;;;;;;4386452;32;20151;-61
2022/12/05 05:34:05;;;;;;;1.98;1.48;;;3.90;99.90;;;;;;4374548;32;20056;-62
2022/12/05 05:36:30;;;;;;;8.57;2.45;;;3.90;99.90;;;;;;4377841;32;20334;-62
2022/12/05 05:38:59;;;;;;;1.00;0.98;;;3.90;99.90;;;;;;4414683;32;20070;-60
2022/12/05 05:41:29;;;;;;;3.55;2.03;;;3.90;99.90;;;;;;4392687;32;20094;-60
2022/12/05 05:43:55;;;;;;;1.77;1.23;;;3.90;99.90;;;;;;4392792;32;20320;-61
2022/12/05 05:46:23;;;;;;;2.12;1.90;;;3.90;99.90;;;;;;4405425;32;20825;-62
2022/12/05 05:48:48;;;;;;;1.75;1.35;;;3.90;99.90;;;;;;4421131;32;20145;-60
2022/12/05 05:51:15;;;;;;;1.00;1.00;;;3.90;99.90;;;;;;4417778;32;20050;-62
2022/12/05 05:53:41;;;;;;;0.95;0.95;;;4.00;99.90;;;;;;4371238;32;20117;-61
2022/12/05 05:56:10;;;;;;;1.42;1.25;;;4.00;99.90;;;;;;4389797;32;20070;-62
2022/12/05 05:58:36;;;;;;;6.57;1.95;;;3.90;99.90;;;;;;4401410;32;20098;-62
2022/12/05 06:01:12;;;;;;;0.90;0.90;;;4.00;99.90;;;;;;4397547;32;20153;-62
2022/12/05 06:03:38;;;;;;;2.28;1.52;;;4.00;99.90;;;;;;4374189;32;20066;-62
2022/12/05 06:06:06;;;;;;;0.90;0.90;;;4.00;99.90;;;;;;4361577;32;20137;-63
2022/12/05 06:08:34;;;;;;;0.88;0.88;;;4.00;99.90;;;;;;4366454;32;20038;-61
2022/12/05 06:11:03;;;;;;;2.00;1.20;;;4.00;99.90;;;;;;4366291;32;20108;-61
2022/12/05 06:13:28;;;;;;;1.80;1.70;;;3.90;99.90;;;;;;4360621;32;20173;-61
2022/12/05 06:15:54;;;;;;;4.95;2.05;;;3.90;99.90;;;;;;4378965;32;20050;-63
2022/12/05 06:18:19;;;;;;;8.10;1.75;;;4.00;99.90;;;;;;4351960;32;20503;-62
2022/12/05 06:20:53;;;;;;;0.93;0.93;;;3.90;99.90;;;;;;4333112;32;20221;-62
2022/12/05 06:23:19;;;;;;;5.32;1.42;;;4.00;99.90;;;;;;4321071;32;20092;-62
2022/12/05 06:25:47;;;;;;;1.52;1.25;;;4.00;99.90;;;;;;4303466;32;20412;-64
2022/12/05 06:28:13;;;;;;;4.55;2.05;;;3.90;99.90;;;;;;4342867;32;20599;-62
2022/12/05 06:30:39;;;;;;;1.35;1.27;;;3.90;99.90;;;;;;4305504;32;20514;-62
2022/12/05 06:33:04;;;;;;;2.03;1.60;;;3.90;99.90;;;;;;4324386;32;20130;-63
2022/12/05 06:35:30;;;;;;;1.17;1.10;;;4.00;99.90;;;;;;4327440;32;20458;-62
2022/12/05 06:37:55;;;;;;;6.28;2.45;;;3.90;99.90;;;;;;4345360;32;20264;-61
2022/12/05 06:40:21;;;;;;;1.50;1.37;;;3.90;99.90;;;;;;4349467;32;20432;-62
2022/12/05 06:42:47;;;;;;;3.65;1.10;;;4.00;99.90;;;;;;4338851;32;20191;-64
2022/12/05 06:45:13;;;;;;;4.18;2.00;;;4.00;99.90;;;;;;4368778;32;20321;-63
2022/12/05 06:47:38;;;;;;;5.07;2.15;;;4.00;99.90;;;;;;4379837;32;20463;-63
2022/12/05 06:50:04;;;;;;;1.40;1.25;;;4.00;99.90;;;;;;4382891;32;20153;-62
2022/12/05 06:52:30;;;;;;;2.05;1.65;;;4.00;99.90;;;;;;4380205;32;20372;-62
2022/12/05 06:54:55;;;;;;;2.65;0.73;;;4.00;99.90;;;;;;4393271;32;20082;-62
2022/12/05 06:57:21;;;;;;;1.00;1.00;;;4.00;99.90;;;;;;4395099;32;20090;-63
2022/12/05 06:59:46;;;;;;;1.75;1.25;;;4.00;99.90;;;;;;4387736;32;20097;-63
2022/12/05 07:02:12;;;;;;;4.95;2.35;;;4.00;99.90;;;;;;4383325;32;20106;-63
2022/12/05 07:04:38;;;;;;;0.77;0.70;;;4.00;99.90;;;;;;4368310;32;20082;-63
2022/12/05 07:07:03;;;;;;;0.70;0.70;;;4.00;99.90;;;;;;4367121;32;20395;-62
2022/12/05 07:09:44;;;;;;;5.93;1.70;;;4.00;99.90;;;;;;4390306;32;20086;-61
2022/12/05 07:12:10;;;;;;;;;;;3.90;99.90;;;;;;4406383;32;20409;-62
2022/12/05 07:14:36;;;;;;;1.30;1.12;;;3.90;99.90;;;;;;4409286;32;20117;-60
2022/12/05 07:17:01;;;;;;;1.00;0.93;;;4.00;99.90;;;;;;4409179;32;20070;-62
2022/12/05 07:19:27;;;;;;;0.77;0.77;;;4.00;99.90;;;;;;4390597;32;20168;-62
2022/12/05 07:21:52;;;;;;;1.95;1.70;;;4.00;99.90;;;;;;4386403;32;20134;-63
2022/12/05 07:24:18;;;;;;;1.95;1.75;;;4.00;99.90;;;;;;4394756;32;20074;-62
2022/12/05 07:26:43;;;;;;;1.48;1.12;;;4.00;99.90;;;;;;4401472;32;20090;-61
2022/12/05 07:29:09;;;;;;;0.57;0.57;;;4.00;99.90;;;;;;4398153;32;20100;-62
2022/12/05 07:32:39;;;;;;;0.90;0.90;;;3.90;99.90;;;;;;4418288;32;111207;-78
2022/12/05 07:35:04;;;;;;;1.05;1.05;;;4.00;99.90;;;;;;4394032;32;20221;-79
2022/12/05 07:37:30;;;;;;;1.33;1.20;;;4.00;99.90;;;;;;4405081;32;20443;-77
2022/12/05 07:39:56;;;;;;;0.60;0.60;;;4.00;99.90;;;;;;4427578;32;20381;-79
2022/12/05 07:42:22;;;;;;;4.47;1.12;;;4.00;99.90;;;;;;4434311;32;20545;-81
2022/12/05 07:44:47;;;;;;;5.37;1.37;;;4.00;99.90;;;;;;4424585;32;20080;-78
2022/12/05 07:47:13;;;;;;;0.90;0.90;;;4.00;99.90;;;;;;4415594;32;20069;-79
2022/12/05 07:49:38;;;;;;;0.50;0.50;;;4.00;99.90;;;;;;4395143;32;20796;-78
2022/12/05 07:52:04;;;;;;;1.08;0.98;;;3.90;99.90;;;;;;4402314;32;20251;-78
2022/12/05 07:54:29;;;;;;;2.62;1.05;;;4.00;99.90;;;;;;4410981;32;20072;-77
2022/12/05 07:56:55;;;;;;;1.25;1.15;;;3.90;99.90;;;;;;4421477;32;20105;-81
2022/12/05 07:59:20;;;;;;;1.40;1.30;;;3.90;99.90;;;;;;4413453;32;20269;-78
2022/12/05 08:01:46;;;;;;;0.93;0.93;;;4.00;99.90;;;;;;4391684;32;20671;-78
2022/12/05 08:04:11;;;;;;;0.93;0.93;;;4.00;99.90;;;;;;4375540;32;20358;-78
2022/12/05 08:06:37;;;;;;;0.80;0.80;;;4.00;99.90;;;;;;4390137;32;20238;-77
2022/12/05 08:09:02;;;;;;;0.80;0.80;;;4.00;99.90;;;;;;4411365;32;20091;-78
2022/12/05 08:11:31;;;;;;;2.53;1.70;;;3.90;99.90;;;;;;4419795;32;20192;-78
2022/12/05 08:13:57;;;;;;;3.95;1.15;;;4.00;99.90;;;;;;4418619;32;20068;-77
2022/12/05 08:16:26;;;;;;;0.80;0.80;;;3.90;99.90;;;;;;4423686;32;20667;-78
2022/12/05 08:18:57;;;;;;;1.50;1.40;;;4.00;99.90;;;;;;4410133;32;20271;-78
2022/12/05 08:21:24;;;;;;;4.45;1.65;;;4.00;99.90;;;;;;4399867;32;20085;-78
2022/12/05 08:23:50;;;;;;;2.42;1.20;;;4.00;99.90;;;;;;4407234;32;20100;-78
2022/12/05 08:26:20;;;;;;;3.97;1.98;;;4.00;99.90;;;;;;4425497;32;20281;-77
2022/12/05 08:28:49;;;;;;;1.92;1.55;;;4.00;99.90;;;;;;4420852;32;21272;-77
2022/12/05 08:31:17;;;;;;;1.10;1.10;;;4.00;99.90;;;;;;4396440;32;20088;-79
2022/12/05 08:33:43;;;;;;;1.15;1.15;;;4.00;99.90;;;;;;4374396;32;21039;-79
2022/12/05 08:36:12;;;;;;;1.58;1.37;;;4.00;99.90;;;;;;4383575;32;20447;-80
2022/12/05 08:38:37;;;;;;;11.15;1.77;;;4.10;99.90;;;;;;4406968;32;20077;-77
2022/12/05 08:41:05;;;;;;;2.90;1.60;;;4.10;99.90;;;;;;4415545;32;20774;-79
2022/12/05 08:43:32;;;;;;;0.52;0.52;;;4.10;99.90;;;;;;4405859;32;20085;-79
2022/12/05 08:45:57;;;;;;;1.83;1.58;;;4.10;99.90;;;;;;4407402;32;20191;-80
2022/12/05 08:48:24;;;;;;;1.48;1.08;;;4.10;99.90;;;;;;4404504;32;20994;-80
2022/12/05 08:50:50;;;;;;;13.10;2.42;;;4.10;99.90;;;;;;4384916;32;20080;-79
2022/12/05 08:53:15;;;;;;;1.67;1.25;;;4.10;99.90;;;;;;4386813;32;20185;-81
2022/12/05 08:55:41;;;;;;;1.30;1.20;;;4.10;99.90;;;;;;4401881;32;20676;-78
2022/12/05 08:58:07;;;;;;;1.98;1.67;;;4.00;99.90;;;;;;4404067;32;20152;-80
2022/12/05 09:00:33;;;;;;;1.45;1.00;;;4.00;99.90;;;;;;4386237;32;20336;-80
2022/12/05 09:02:58;;;;;;;1.55;1.30;;;4.00;99.90;;;;;;4371468;32;20332;-79
2022/12/05 09:05:25;;;;;;;1.08;1.08;;;4.00;99.90;;;;;;4373936;32;20301;-80
2022/12/05 09:07:50;;;;;;;1.20;1.10;;;4.00;99.90;;;;;;4385527;32;20074;-79
2022/12/05 09:10:16;;;;;;;0.60;0.60;;;4.10;99.90;;;;;;4413591;32;20182;-79
2022/12/05 09:12:42;;;;;;;3.87;1.98;;;4.10;99.90;;;;;;4414128;32;20270;-79
2022/12/05 09:15:09;;;;;;;0.55;0.55;;;4.10;99.90;;;;;;4418210;32;20623;-79
2022/12/05 09:17:35;;;;;;;0.98;0.98;;;4.10;99.90;;;;;;4408185;32;20150;-80
2022/12/05 09:20:00;;;;;;;2.12;0.80;;;4.00;99.90;;;;;;4388233;32;20078;-80
2022/12/05 09:22:26;;;;;;;2.53;1.77;;;4.00;99.90;;;;;;4390388;32;20326;-80
2022/12/05 09:24:52;;;;;;;1.27;1.20;;;4.00;99.90;;;;;;4404123;32;20510;-79
2022/12/05 09:27:17;;;;;;;3.40;2.12;;;4.00;99.90;;;;;;4409547;32;20101;-78
2022/12/05 09:29:43;;;;;;;1.20;1.10;;;4.00;99.90;;;;;;4386503;32;20841;-81
2022/12/05 09:32:09;;;;;;;3.40;1.77;;;4.00;99.90;;;;;;4380615;32;20982;-81
2022/12/05 09:34:36;;;;;;;1.77;1.62;;;4.00;99.90;;;;;;4358817;32;20163;-81
2022/12/05 09:37:02;;;;;;;3.30;2.28;;;4.00;99.90;;;;;;4379954;32;20090;-80
2022/12/05 09:39:28;;;;;;;1.55;1.23;;;4.00;99.90;;;;;;4405533;32;20175;-80
2022/12/05 09:42:17;;;;;;;0.88;0.88;;;4.10;99.90;;;;;;4404663;32;20564;-79
2022/12/05 09:45:23;;;;;;;1.87;1.00;;;4.10;99.90;;;;;;4405431;32;20191;-80
2022/12/05 09:48:11;;;;;;;2.08;1.50;;;4.10;99.90;;;;;;4392945;32;20206;-79
2022/12/05 09:50:58;;;;;;;3.12;1.50;;;4.20;99.90;;;;;;4366193;32;20086;-76
2022/12/05 09:53:36;;;;;;;6.80;1.85;;;4.20;99.90;;;;;;4377078;32;20222;-76
2022/12/05 09:56:06;;;;;;;0.75;0.75;;;4.20;99.90;;;;;;4403541;32;20085;-75
2022/12/05 09:58:49;;;;;;;3.03;1.43;;;4.10;99.90;;;;;;4402364;32;20105;-76
2022/12/05 10:01:44;;;;;;;1.17;0.80;;;4.10;99.90;;;;;;4377304;32;20076;-77
2022/12/05 10:04:33;;;;;;;4.30;2.10;;;4.10;99.90;;;;;;4355838;32;20198;-78
2022/12/05 10:07:09;;;;;;;5.25;1.42;;;4.10;99.90;;;;;;4378135;32;20328;-77
2022/12/05 10:09:57;;;;;;;0.93;0.93;;;4.10;99.90;;;;;;4402595;32;20752;-77
2022/12/05 10:12:46;;;;;;;0.75;0.75;;;4.10;99.90;;;;;;4398453;32;20856;-76
2022/12/05 10:15:25;;;;;;;2.08;1.02;;;4.10;99.90;;;;;;4406640;32;20186;-77
2022/12/05 10:17:58;;;;;;;0.65;0.65;;;4.20;99.90;;;;;;4401888;32;20094;-77
2022/12/05 10:20:29;;;;;;;0.65;0.65;;;4.20;99.90;;;;;;4378138;32;20357;-80
2022/12/05 10:23:00;;;;;;;1.33;1.20;;;4.20;99.90;;;;;;4381254;32;20169;-76
2022/12/05 10:25:27;;;;;;;2.67;1.83;;;4.20;99.90;;;;;;4402151;32;20073;-76
2022/12/05 10:27:58;;;;;;;1.55;1.45;;;4.20;99.90;;;;;;4407854;32;20066;-77
2022/12/05 10:30:28;;;;;;;3.35;1.62;;;4.10;99.90;;;;;;4381801;32;20321;-77
2022/12/05 10:32:56;;;;;;;4.93;2.33;;;4.20;99.90;;;;;;4368410;32;20073;-77
2022/12/05 10:35:26;;;;;;;1.35;1.25;;;4.20;99.90;;;;;;4371372;32;20088;-77
2022/12/05 10:37:55;;;;;;;2.03;1.48;;;4.20;99.90;;;;;;4385343;32;20114;-76
2022/12/05 10:40:21;;;;;;;6.95;2.67;;;4.20;99.90;;;;;;4404438;32;20090;-77
2022/12/05 10:42:48;;;;;;;2.28;1.15;;;4.20;99.90;;;;;;4402025;32;20171;-77
2022/12/05 10:45:21;;;;;;;0.80;0.80;;;4.20;99.90;;;;;;4404293;32;20065;-77
2022/12/05 10:47:52;;;;;;;3.45;1.73;;;4.20;99.90;;;;;;4399491;32;20076;-77
2022/12/05 10:50:24;;;;;;;1.95;1.40;;;4.30;99.90;;;;;;4375438;32;20494;-77
2022/12/05 10:52:52;;;;;;;1.80;1.20;;;4.20;99.90;;;;;;4383440;32;20451;-77
2022/12/05 10:55:18;;;;;;;0.75;0.75;;;4.30;99.90;;;;;;4399324;32;20725;-76
2022/12/05 10:57:50;;;;;;;0.60;0.60;;;4.30;99.90;;;;;;4409631;32;20080;-76
2022/12/05 11:00:21;;;;;;;1.55;1.20;;;4.20;99.90;;;;;;4383389;32;20490;-77
2022/12/05 11:02:47;;;;;;;1.33;1.23;;;4.20;99.90;;;;;;4361902;32;20105;-77
2022/12/05 11:05:13;;;;;;;1.67;1.58;;;4.20;99.90;;;;;;4356191;32;20352;-80
2022/12/05 11:07:46;;;;;;;1.12;1.00;;;4.20;99.90;;;;;;4385410;32;20473;-77
2022/12/05 11:10:25;;;;;;;1.80;1.35;;;4.30;99.90;;;;;;4406600;32;20105;-77
2022/12/05 11:13:03;;;;;;;3.70;1.60;;;4.30;99.90;;;;;;4406881;32;20089;-76
2022/12/05 11:15:30;;;;;;;3.20;1.58;;;4.30;99.90;;;;;;4404155;32;20307;-74
2022/12/05 11:18:15;;;;;;;2.95;2.15;;;4.40;99.90;;;;;;4397507;32;20104;-78
2022/12/05 11:20:41;;;;;;;2.15;1.42;;;4.30;99.90;;;;;;4370577;32;20789;-79
2022/12/05 11:23:27;;;;;;;0.50;0.50;;;4.30;99.90;;;;;;4380772;32;20088;-78
2022/12/05 11:25:55;;;;;;;0.80;0.73;;;4.40;99.90;;;;;;4398206;32;20096;-79
2022/12/05 11:28:27;;;;;;;6.95;2.17;;;4.30;99.90;;;;;;4408139;32;20077;-79
2022/12/05 11:31:14;;;;;;;2.30;1.30;;;4.40;99.90;;;;;;4376990;32;20713;-77
2022/12/05 11:33:39;;;;;;;1.87;1.40;;;4.30;99.90;;;;;;4342732;32;20485;-78
2022/12/05 11:36:27;;;;;;;1.67;1.50;;;4.40;99.90;;;;;;4361607;32;20279;-77
2022/12/05 11:38:53;;;;;;;0.98;0.95;;;4.50;99.90;;;;;;4381882;32;20425;-78
2022/12/05 11:41:38;;;;;;;0.70;0.70;;;4.40;99.90;;;;;;4387807;32;20275;-77
2022/12/05 11:44:27;;;;;;;2.15;1.95;;;4.40;99.90;;;;;;4397603;32;20129;-79
2022/12/05 11:47:08;;;;;;;0.70;0.70;;;4.40;99.90;;;;;;4394974;32;20097;-76
2022/12/05 11:49:55;;;;;;;;;;;4.40;99.90;;;;;;4376814;32;20652;-75
2022/12/05 11:52:50;;;;;;;2.95;1.92;;;4.40;99.90;;;;;;4371951;32;20817;-73
2022/12/05 11:55:26;;;;;;;1.02;1.02;;;4.30;99.90;;;;;;4390304;32;20097;-73
2022/12/05 11:58:03;;;;;;;1.33;1.23;;;4.40;99.90;;;;;;4403439;32;20215;-74
2022/12/05 12:00:43;;;;;;;1.55;1.37;;;4.40;99.90;;;;;;4379021;32;20466;-75
2022/12/05 12:03:39;;;;;;;2.12;1.27;;;4.50;99.90;;;;;;4361997;32;20065;-75
2022/12/05 12:06:30;;;;;;;1.75;1.60;;;4.40;99.90;;;;;;4368945;32;20130;-74
2022/12/05 12:09:24;;;;;;;4.72;2.60;;;4.40;99.90;;;;;;4393072;32;20544;-74
2022/12/05 12:12:17;;;;;;;5.15;1.87;;;4.40;99.90;;;;;;4398691;32;20089;-74
2022/12/05 12:14:52;;;;;;;2.62;2.05;;;4.40;99.90;;;;;;4400785;32;20489;-74
2022/12/05 12:17:37;;;;;;;1.65;1.55;;;4.40;99.90;;;;;;4402606;32;20078;-74
2022/12/05 12:20:35;;;;;;;4.30;1.48;;;4.40;99.90;;;;;;4376963;32;20073;-73
2022/12/05 12:23:20;;;;;;;2.25;1.67;;;4.30;99.90;;;;;;4381429;32;20643;-74
2022/12/05 12:26:09;;;;;;;0.60;0.60;;;4.30;99.90;;;;;;4398956;32;20449;-72
2022/12/05 12:28:44;;;;;;;7.35;2.37;;;4.30;99.90;;;;;;4403517;32;20097;-73
2022/12/05 12:31:24;;;;;;;1.45;1.35;;;4.30;99.90;;;;;;4379309;32;20085;-73
2022/12/05 12:34:11;;;;;;;5.47;2.25;;;4.30;99.90;;;;;;4359218;32;20104;-76
2022/12/05 12:37:02;;;;;;;1.20;1.20;;;4.30;99.90;;;;;;4377726;32;20104;-74
2022/12/05 12:39:51;;;;;;;4.85;2.45;;;4.30;99.90;;;;;;4395237;32;20448;-74
2022/12/05 12:42:27;;;;;;;4.80;2.42;;;4.30;99.90;;;;;;4401432;32;20089;-74
2022/12/05 12:45:24;;;;;;;5.95;1.67;;;4.20;99.90;;;;;;4402866;32;20081;-75
2022/12/05 12:48:24;;;;;;;4.53;1.98;;;4.30;99.90;;;;;;4399006;32;20331;-75
2022/12/05 12:50:52;;;;;;;2.60;2.15;;;4.30;99.90;;;;;;4377625;32;20086;-75
2022/12/05 12:53:57;;;;;;;4.37;1.58;;;4.30;99.90;;;;;;4383550;32;20297;-74
2022/12/05 12:57:03;;;;;;;3.87;2.05;;;4.30;99.90;;;;;;4392341;32;20526;-75
2022/12/05 12:59:41;;;;;;;3.70;1.75;;;4.30;99.90;;;;;;4384127;32;20417;-74
2022/12/05 13:02:21;;;;;;;6.70;1.67;;;4.30;99.90;;;;;;4368225;32;20064;-76
2022/12/05 13:04:53;;;;;;;1.27;1.23;;;4.40;99.90;;;;;;4356189;32;20239;-76
2022/12/05 13:07:29;;;;;;;8.73;1.42;;;4.40;99.90;;;;;;4374492;32;20303;-75
2022/12/05 13:10:04;;;;;;;6.78;1.60;;;4.40;99.90;;;;;;4398162;32;20540;-74
2022/12/05 13:12:35;;;;;;;4.00;1.58;;;4.40;99.90;;;;;;4397654;32;20126;-75
2022/12/05 13:15:12;;;;;;;1.42;1.12;;;4.40;99.90;;;;;;4403588;32;20147;-75
2022/12/05 13:17:41;;;;;;;1.83;1.65;;;4.40;99.90;;;;;;4395457;32;20109;-75
2022/12/05 13:20:15;;;;;;;2.22;0.95;;;4.40;99.90;;;;;;4376686;32;20118;-76
2022/12/05 13:22:40;;;;;;;22.35;2.20;;;4.40;99.90;;;;;;4379830;32;20835;-75